createdAt,value
2023-03-26T00:01:52.668Z,30.23
2023-03-26T00:04:21.931Z,30.10
2023-03-26T00:06:50.232Z,30.60
2023-03-26T00:09:18.893Z,31.10
2023-03-26T00:11:47.238Z,32.53
2023-03-26T00:14:17.541Z,31.03
2023-03-26T00:16:47.427Z,30.77
2023-03-26T00:19:15.555Z,29.60
2023-03-26T00:21:44.552Z,31.07
2023-03-26T00:24:16.074Z,29.60
2023-03-26T00:26:44.731Z,29.53
2023-03-26T00:29:13.856Z,29.97
2023-03-26T00:31:45.946Z,30.97
2023-03-26T00:34:15.594Z,29.53
2023-03-26T00:36:46.825Z,30.60
2023-03-26T00:39:15.208Z,30.80
2023-03-26T00:41:43.296Z,29.43
2023-03-26T00:44:11.725Z,29.70
2023-03-26T00:46:39.480Z,29.17
2023-03-26T00:49:10.823Z,29.10
2023-03-26T00:51:39.276Z,29.60
2023-03-26T00:54:09.017Z,29.23
2023-03-26T00:56:36.857Z,28.67
2023-03-26T00:59:04.814Z,29.20
2023-03-26T01:01:32.527Z,28.93
2023-03-26T01:04:24.122Z,29.03
2023-03-26T01:06:52.246Z,30.43
2023-03-26T01:09:25.830Z,28.77
2023-03-26T01:11:53.741Z,29.20
2023-03-26T01:14:24.095Z,29.20
2023-03-26T01:16:54.806Z,29.73
2023-03-26T01:19:30.353Z,29.17
2023-03-26T01:21:59.091Z,29.07
2023-03-26T01:24:28.430Z,27.13
2023-03-26T01:27:17.673Z,27.50
2023-03-26T01:29:52.600Z,27.07
2023-03-26T01:32:30.872Z,27.37
2023-03-26T01:35:12.415Z,29.60
2023-03-26T01:37:52.524Z,27.97
2023-03-26T01:40:27.754Z,28.47
2023-03-26T01:42:59.914Z,28.97
2023-03-26T01:45:31.140Z,28.20
2023-03-26T01:47:59.356Z,29.40
2023-03-26T01:50:27.311Z,28.07
2023-03-26T01:52:55.192Z,27.97
2023-03-26T01:55:27.986Z,28.00
2023-03-26T01:58:04.019Z,28.73
2023-03-26T02:00:34.626Z,27.87
2023-03-26T02:03:17.669Z,27.70
2023-03-26T02:05:54.292Z,28.23
2023-03-26T02:08:25.388Z,26.90
2023-03-26T02:10:58.532Z,28.40
2023-03-26T02:13:27.137Z,28.13
2023-03-26T02:16:00.249Z,27.17
2023-03-26T02:18:36.082Z,27.40
2023-03-26T02:21:05.467Z,29.17
2023-03-26T02:23:35.694Z,27.70
2023-03-26T02:26:07.456Z,27.20
2023-03-26T02:28:35.760Z,27.90
2023-03-26T02:31:03.509Z,27.80
2023-03-26T02:33:32.017Z,26.60
2023-03-26T02:36:02.084Z,26.60
2023-03-26T02:38:30.432Z,27.23
2023-03-26T02:40:58.006Z,27.27
2023-03-26T02:43:26.985Z,27.57
2023-03-26T02:45:55.057Z,28.23
2023-03-26T02:48:23.049Z,28.67
2023-03-26T02:50:54.184Z,28.93
2023-03-26T02:53:24.199Z,29.93
2023-03-26T02:55:52.273Z,30.07
2023-03-26T02:58:20.198Z,29.20
2023-03-26T03:00:50.724Z,29.90
2023-03-26T03:03:18.478Z,29.10
2023-03-26T03:05:46.084Z,30.90
2023-03-26T03:08:13.686Z,30.77
2023-03-26T03:10:41.312Z,30.40
2023-03-26T03:13:08.984Z,30.77
2023-03-26T03:15:36.700Z,32.10
2023-03-26T03:18:06.077Z,34.10
2023-03-26T03:20:35.344Z,34.00
2023-03-26T03:23:03.184Z,32.73
2023-03-26T03:25:32.506Z,33.53
2023-03-26T03:28:00.248Z,32.43
2023-03-26T03:30:27.950Z,32.30
2023-03-26T03:32:58.204Z,31.77
2023-03-26T03:35:27.868Z,31.67
2023-03-26T03:37:55.608Z,31.40
2023-03-26T03:40:23.385Z,31.30
2023-03-26T03:42:51.648Z,32.07
2023-03-26T03:45:19.586Z,32.80
2023-03-26T03:47:47.283Z,33.03
2023-03-26T03:50:15.022Z,32.73
2023-03-26T03:52:44.363Z,32.10
2023-03-26T03:55:13.951Z,32.73
2023-03-26T03:57:41.816Z,32.13
2023-03-26T04:00:11.848Z,33.30
2023-03-26T04:02:42.893Z,32.07
2023-03-26T04:05:11.650Z,32.43
2023-03-26T04:07:40.006Z,33.67
2023-03-26T04:10:10.848Z,32.67
2023-03-26T04:12:38.552Z,31.90
2023-03-26T04:15:07.315Z,33.10
2023-03-26T04:17:42.781Z,31.90
2023-03-26T04:20:14.715Z,32.03
2023-03-26T04:22:43.400Z,32.40
2023-03-26T04:25:15.419Z,30.87
2023-03-26T04:27:44.026Z,31.40
2023-03-26T04:30:16.542Z,31.20
2023-03-26T04:32:44.709Z,32.15
2023-03-26T04:35:14.619Z,31.60
2023-03-26T04:37:44.377Z,30.73
2023-03-26T04:40:16.429Z,29.90
2023-03-26T04:42:46.433Z,31.93
2023-03-26T04:45:14.922Z,32.20
2023-03-26T04:47:42.972Z,32.20
2023-03-26T04:50:12.777Z,32.70
2023-03-26T04:52:42.618Z,33.57
2023-03-26T04:55:24.574Z,32.83
2023-03-26T04:57:56.718Z,30.73
2023-03-26T05:00:25.377Z,31.90
2023-03-26T05:02:55.834Z,30.50
2023-03-26T05:05:24.003Z,30.43
2023-03-26T05:07:51.649Z,30.73
2023-03-26T05:10:21.778Z,30.57
2023-03-26T05:12:50.130Z,29.20
2023-03-26T05:15:17.835Z,30.33
2023-03-26T05:17:46.455Z,30.90
2023-03-26T05:20:20.906Z,32.20
2023-03-26T05:22:49.264Z,30.90
2023-03-26T05:25:17.150Z,29.50
2023-03-26T05:27:46.477Z,30.80
2023-03-26T05:30:16.690Z,30.17
2023-03-26T05:32:44.697Z,29.93
2023-03-26T05:35:12.694Z,28.27
2023-03-26T05:37:41.218Z,28.57
2023-03-26T05:40:12.264Z,28.60
2023-03-26T05:42:41.022Z,26.37
2023-03-26T05:45:12.792Z,27.50
2023-03-26T05:47:40.564Z,29.97
2023-03-26T05:50:09.825Z,27.40
2023-03-26T05:52:37.792Z,27.07
2023-03-26T05:55:06.550Z,27.93
2023-03-26T05:57:35.361Z,27.80
2023-03-26T06:00:04.223Z,27.20
2023-03-26T06:02:33.703Z,27.27
2023-03-26T06:05:02.823Z,25.40
2023-03-26T06:07:31.187Z,26.00
2023-03-26T06:09:58.835Z,26.50
2023-03-26T06:12:26.486Z,26.10
2023-03-26T06:14:54.231Z,23.27
2023-03-26T06:17:22.112Z,20.63
2023-03-26T06:19:51.410Z,19.10
2023-03-26T06:22:19.097Z,18.30
2023-03-26T06:24:46.779Z,18.53
2023-03-26T06:27:14.516Z,16.87
2023-03-26T06:29:42.161Z,17.60
2023-03-26T06:32:19.041Z,17.67
2023-03-26T06:34:47.542Z,16.67
2023-03-26T06:37:16.910Z,16.50
2023-03-26T06:39:44.599Z,16.27
2023-03-26T06:42:12.323Z,15.57
2023-03-26T06:44:40.294Z,16.07
2023-03-26T06:47:07.908Z,16.13
2023-03-26T06:49:35.989Z,14.20
2023-03-26T06:52:03.671Z,13.67
2023-03-26T06:54:33.114Z,14.87
2023-03-26T06:57:00.816Z,12.97
2023-03-26T06:59:28.647Z,12.70
2023-03-26T07:01:56.305Z,12.23
2023-03-26T07:04:23.960Z,13.00
2023-03-26T07:06:51.728Z,13.37
2023-03-26T07:09:19.410Z,13.10
2023-03-26T07:11:48.661Z,11.40
2023-03-26T07:14:16.535Z,11.83
2023-03-26T07:16:44.116Z,11.90
2023-03-26T07:19:11.753Z,12.40
2023-03-26T07:21:39.887Z,13.30
2023-03-26T07:24:11.289Z,13.43
2023-03-26T07:26:52.877Z,12.73
2023-03-26T07:29:30.015Z,12.20
2023-03-26T07:32:06.966Z,12.13
2023-03-26T07:34:45.219Z,11.57
2023-03-26T07:37:22.868Z,10.07
2023-03-26T07:39:55.839Z,11.40
2023-03-26T07:42:39.119Z,11.33
2023-03-26T07:45:18.200Z,11.23
2023-03-26T07:47:47.645Z,10.17
2023-03-26T07:50:18.385Z,10.40
2023-03-26T07:52:47.223Z,10.53
2023-03-26T07:55:17.095Z,10.77
2023-03-26T07:57:55.012Z,9.60
2023-03-26T08:00:27.756Z,10.60
2023-03-26T08:03:11.934Z,10.47
2023-03-26T08:05:45.996Z,10.10
2023-03-26T08:08:20.734Z,10.47
2023-03-26T08:11:03.206Z,9.60
2023-03-26T08:13:40.645Z,9.27
2023-03-26T08:16:13.656Z,9.47
2023-03-26T08:18:48.696Z,9.97
2023-03-26T08:21:20.521Z,9.80
2023-03-26T08:24:00.388Z,10.80
2023-03-26T08:26:36.241Z,10.73
2023-03-26T08:29:18.294Z,9.80
2023-03-26T08:31:48.956Z,9.17
2023-03-26T08:34:17.149Z,8.43
2023-03-26T08:36:44.836Z,10.23
2023-03-26T08:39:13.033Z,9.80
2023-03-26T08:42:05.963Z,9.03
2023-03-26T08:45:14.138Z,10.10
2023-03-26T08:48:24.308Z,10.10
2023-03-26T08:51:24.952Z,8.77
2023-03-26T08:54:30.733Z,9.23
2023-03-26T08:57:16.288Z,9.33
2023-03-26T09:00:05.898Z,9.30
2023-03-26T09:02:54.815Z,9.23
2023-03-26T09:05:55.951Z,8.90
2023-03-26T09:08:53.628Z,7.50
2023-03-26T09:11:54.284Z,7.20
2023-03-26T09:14:53.252Z,7.90
2023-03-26T09:17:45.476Z,8.83
2023-03-26T09:20:48.253Z,7.37
2023-03-26T09:24:00.638Z,7.80
2023-03-26T09:26:41.285Z,7.97
2023-03-26T09:29:51.773Z,7.87
2023-03-26T09:32:47.097Z,7.70
2023-03-26T09:35:29.963Z,8.93
2023-03-26T09:38:03.386Z,9.70
2023-03-26T09:40:39.606Z,9.47
2023-03-26T09:43:37.437Z,8.33
2023-03-26T09:46:18.970Z,7.50
2023-03-26T09:49:20.958Z,7.80
2023-03-26T09:51:59.751Z,8.60
2023-03-26T09:54:44.504Z,7.83
2023-03-26T09:57:25.212Z,7.33
2023-03-26T10:00:09.955Z,6.90
2023-03-26T10:03:15.589Z,6.47
2023-03-26T10:05:54.729Z,6.33
2023-03-26T10:08:55.459Z,6.93
2023-03-26T10:11:34.264Z,8.73
2023-03-26T10:14:10.481Z,7.07
2023-03-26T10:16:49.014Z,8.23
2023-03-26T10:19:40.775Z,7.90
2023-03-26T10:22:24.482Z,8.00
2023-03-26T10:25:23.647Z,7.40
2023-03-26T10:28:03.013Z,6.63
2023-03-26T10:30:45.901Z,7.07
2023-03-26T10:33:25.103Z,6.13
2023-03-26T10:36:03.201Z,7.23
2023-03-26T10:38:50.165Z,6.70
2023-03-26T10:41:22.430Z,6.90
2023-03-26T10:44:27.812Z,6.43
2023-03-26T10:47:14.623Z,6.20
2023-03-26T10:50:04.027Z,6.47
2023-03-26T10:52:38.754Z,5.70
2023-03-26T10:55:15.606Z,6.40
2023-03-26T10:57:46.771Z,6.50
2023-03-26T11:00:20.570Z,6.70
2023-03-26T11:03:05.234Z,5.80
2023-03-26T11:05:48.014Z,6.30
2023-03-26T11:08:30.980Z,6.63
2023-03-26T11:11:08.083Z,6.17
2023-03-26T11:13:47.626Z,7.20
2023-03-26T11:16:26.528Z,6.30
2023-03-26T11:18:59.776Z,6.40
2023-03-26T11:21:36.067Z,6.60
2023-03-26T11:24:40.556Z,6.83
2023-03-26T11:30:23.348Z,5.43
2023-03-26T11:32:54.288Z,6.83
2023-03-26T11:34:36.678Z,6.03
2023-03-26T11:35:40.903Z,6.37
2023-03-26T11:38:17.732Z,6.00
2023-03-26T11:40:50.921Z,5.60
2023-03-26T11:43:25.098Z,5.70
2023-03-26T11:45:53.952Z,5.70
2023-03-26T11:48:27.633Z,5.20
2023-03-26T11:50:59.816Z,5.77
2023-03-26T11:53:32.777Z,6.00
2023-03-26T11:56:04.402Z,5.50
2023-03-26T11:58:39.224Z,5.43
2023-03-26T12:01:15.367Z,5.43
2023-03-26T12:03:42.965Z,4.60
2023-03-26T12:06:25.573Z,4.50
2023-03-26T12:08:55.160Z,5.50
2023-03-26T12:11:27.176Z,5.00
2023-03-26T12:13:59.484Z,5.40
2023-03-26T12:16:28.086Z,4.60
2023-03-26T12:19:01.291Z,5.07
2023-03-26T12:21:28.932Z,5.80
2023-03-26T12:24:00.024Z,5.07
2023-03-26T12:26:35.787Z,5.20
2023-03-26T12:29:09.946Z,5.00
2023-03-26T12:32:04.113Z,5.30
2023-03-26T12:34:35.689Z,5.33
2023-03-26T12:37:05.647Z,4.70
2023-03-26T12:40:10.094Z,5.63
2023-03-26T12:44:44.475Z,5.40
2023-03-26T12:45:20.959Z,4.77
2023-03-26T12:48:01.145Z,4.03
2023-03-26T12:50:56.970Z,4.70
2023-03-26T12:53:53.921Z,4.50
2023-03-26T12:56:38.471Z,4.73
2023-03-26T12:59:34.103Z,4.97
2023-03-26T13:02:25.075Z,5.80
2023-03-26T13:05:06.751Z,4.70
2023-03-26T13:07:52.644Z,3.90
2023-03-26T13:10:35.089Z,4.10
2023-03-26T13:13:18.005Z,4.00
2023-03-26T13:15:52.494Z,5.30
2023-03-26T13:18:32.133Z,5.07
2023-03-26T13:21:09.188Z,4.20
2023-03-26T13:23:44.934Z,4.40
2023-03-26T13:26:22.715Z,3.50
2023-03-26T13:28:56.852Z,4.37
2023-03-26T13:31:30.328Z,4.37
2023-03-26T13:34:10.143Z,3.67
2023-03-26T13:36:48.049Z,4.47
2023-03-26T13:39:26.186Z,3.73
2023-03-26T13:42:10.056Z,3.67
2023-03-26T13:44:51.054Z,4.17
2023-03-26T13:47:23.172Z,3.60
2023-03-26T13:49:56.175Z,3.90
2023-03-26T13:52:27.939Z,4.00
2023-03-26T13:55:02.606Z,3.60
2023-03-26T13:57:35.907Z,3.47
2023-03-26T14:00:12.834Z,3.60
2023-03-26T14:02:42.319Z,3.67
2023-03-26T14:05:20.517Z,3.40
2023-03-26T14:07:52.382Z,3.07
2023-03-26T14:10:24.414Z,3.40
2023-03-26T14:12:57.707Z,3.73
2023-03-26T14:15:30.450Z,3.20
2023-03-26T14:18:07.651Z,3.63
2023-03-26T14:21:19.846Z,3.30
2023-03-26T14:24:02.945Z,3.43
2023-03-26T14:26:47.631Z,3.27
2023-03-26T14:29:30.763Z,3.70
2023-03-26T14:32:10.667Z,3.80
2023-03-26T14:34:51.188Z,3.77
2023-03-26T14:37:41.040Z,3.63
2023-03-26T14:40:29.352Z,3.63
2023-03-26T14:43:15.901Z,3.60
2023-03-26T14:46:08.470Z,3.37
2023-03-26T14:48:59.079Z,3.50
2023-03-26T14:51:50.911Z,3.23
2023-03-26T14:54:21.798Z,3.40
2023-03-26T14:57:17.448Z,3.27
2023-03-26T15:00:19.927Z,3.50
2023-03-26T15:03:34.584Z,3.07
2023-03-26T15:06:26.403Z,3.00
2023-03-26T15:09:27.055Z,3.37
2023-03-26T15:12:12.118Z,3.20
2023-03-26T15:15:11.053Z,3.30
2023-03-26T15:18:08.799Z,3.40
2023-03-26T15:21:18.509Z,3.50
2023-03-26T15:24:07.625Z,3.03
2023-03-26T15:27:11.651Z,3.20
2023-03-26T15:30:39.030Z,3.87
2023-03-26T15:33:49.652Z,3.47
2023-03-26T15:36:36.991Z,3.70
2023-03-26T15:39:38.076Z,3.47
2023-03-26T15:42:15.708Z,3.50
2023-03-26T15:44:54.521Z,3.63
2023-03-26T15:47:48.148Z,3.77
2023-03-26T15:50:36.560Z,2.93
2023-03-26T15:53:18.414Z,3.10
2023-03-26T15:56:02.979Z,3.23
2023-03-26T15:58:44.108Z,3.10
2023-03-26T16:01:23.088Z,3.60
2023-03-26T16:03:59.487Z,3.30
2023-03-26T16:06:33.993Z,3.70
2023-03-26T16:09:26.987Z,2.90
2023-03-26T16:11:56.846Z,3.00
2023-03-26T16:14:42.788Z,3.17
2023-03-26T16:17:14.724Z,3.30
2023-03-26T16:19:50.458Z,3.40
2023-03-26T16:22:42.877Z,3.00
2023-03-26T16:25:27.348Z,2.90
2023-03-26T16:28:30.265Z,3.50
2023-03-26T16:31:37.736Z,3.27
2023-03-26T16:34:43.091Z,3.27
2023-03-26T16:37:43.832Z,3.77
2023-03-26T16:40:51.540Z,2.80
2023-03-26T16:43:42.103Z,2.90
2023-03-26T16:46:20.377Z,2.97
2023-03-26T16:48:56.698Z,2.90
2023-03-26T16:51:34.197Z,3.43
2023-03-26T16:54:13.039Z,3.23
2023-03-26T16:56:49.918Z,3.00
2023-03-26T16:59:40.159Z,3.20
2023-03-26T17:02:17.845Z,3.03
2023-03-26T17:05:37.992Z,3.30
2023-03-26T17:08:16.906Z,3.17
2023-03-26T17:10:57.353Z,2.93
2023-03-26T17:13:34.987Z,2.63
2023-03-26T17:16:12.530Z,2.70
2023-03-26T17:18:49.315Z,2.70
2023-03-26T17:21:24.665Z,3.40
2023-03-26T17:24:05.298Z,3.10
2023-03-26T17:26:44.351Z,3.53
2023-03-26T17:29:24.814Z,3.00
2023-03-26T17:32:00.427Z,3.20
2023-03-26T17:35:07.461Z,3.40
2023-03-26T17:37:48.064Z,3.20
2023-03-26T17:40:44.574Z,3.13
2023-03-26T17:43:13.516Z,3.60
2023-03-26T17:45:45.764Z,3.60
2023-03-26T17:48:35.486Z,3.67
2023-03-26T17:51:12.222Z,3.83
2023-03-26T17:53:42.538Z,3.83
2023-03-26T17:56:17.527Z,4.40
2023-03-26T17:58:48.946Z,3.93
2023-03-26T18:01:28.809Z,3.53
2023-03-26T18:04:00.104Z,3.80
2023-03-26T18:06:47.715Z,4.20
2023-03-26T18:09:37.020Z,3.73
2023-03-26T18:12:31.369Z,3.93
2023-03-26T18:15:27.092Z,3.90
2023-03-26T18:18:03.209Z,4.57
2023-03-26T18:20:32.317Z,4.57
2023-03-26T18:22:59.922Z,4.57
2023-03-26T18:25:33.930Z,3.80
2023-03-26T18:28:02.973Z,3.60
2023-03-26T18:30:31.114Z,3.60
2023-03-26T18:33:03.411Z,3.70
2023-03-26T18:35:41.501Z,4.20
2023-03-26T18:38:14.806Z,4.13
2023-03-26T18:40:46.389Z,4.70
2023-03-26T18:43:25.381Z,4.23
2023-03-26T18:45:57.257Z,4.60
2023-03-26T18:48:26.595Z,4.13
2023-03-26T18:50:57.394Z,5.00
2023-03-26T18:53:29.690Z,4.07
2023-03-26T18:55:59.462Z,4.63
2023-03-26T18:58:29.968Z,5.13
2023-03-26T19:01:01.432Z,5.70
2023-03-26T19:03:32.467Z,4.50
2023-03-26T19:06:02.340Z,4.30
2023-03-26T19:08:31.018Z,4.70
2023-03-26T19:11:02.122Z,4.70
2023-03-26T19:13:29.866Z,4.90
2023-03-26T19:15:57.791Z,5.00
2023-03-26T19:18:28.834Z,4.50
2023-03-26T19:20:59.805Z,4.70
2023-03-26T19:23:32.246Z,5.07
2023-03-26T19:26:04.079Z,5.10
2023-03-26T19:28:34.617Z,4.63
2023-03-26T19:31:09.283Z,4.57
2023-03-26T19:33:39.314Z,4.27
2023-03-26T19:36:18.648Z,5.53
2023-03-26T19:38:51.837Z,4.90
2023-03-26T19:41:25.625Z,5.43
2023-03-26T19:43:56.111Z,4.83
2023-03-26T19:46:24.975Z,4.03
2023-03-26T19:48:54.520Z,4.10
2023-03-26T19:51:24.382Z,4.13
2023-03-26T19:53:58.127Z,4.60
2023-03-26T19:56:28.642Z,4.47
2023-03-26T19:58:57.220Z,4.97
2023-03-26T20:01:27.110Z,5.43
2023-03-26T20:03:57.730Z,4.60
2023-03-26T20:09:17.096Z,4.77
2023-03-26T20:11:47.045Z,4.90
2023-03-26T20:14:16.632Z,5.00
2023-03-26T20:16:45.465Z,5.57
2023-03-26T20:19:13.911Z,6.80
2023-03-26T20:21:42.224Z,5.33
2023-03-26T20:24:13.222Z,4.97
2023-03-26T20:26:40.908Z,5.43
2023-03-26T20:29:10.097Z,4.80
2023-03-26T20:31:38.425Z,5.30
2023-03-26T20:34:14.523Z,5.57
2023-03-26T20:36:42.214Z,5.83
2023-03-26T20:39:10.202Z,6.90
2023-03-26T20:41:42.730Z,5.40
2023-03-26T20:44:15.380Z,5.20
2023-03-26T20:46:44.055Z,4.70
2023-03-26T20:49:12.917Z,4.80
2023-03-26T20:51:41.856Z,5.27
2023-03-26T20:54:15.749Z,5.20
2023-03-26T20:56:43.419Z,4.77
2023-03-26T20:59:22.683Z,5.40
2023-03-26T21:01:51.253Z,5.30
2023-03-26T21:04:20.280Z,5.40
2023-03-26T21:06:48.683Z,5.50
2023-03-26T21:09:18.602Z,5.20
2023-03-26T21:11:52.860Z,5.33
2023-03-26T21:14:24.986Z,5.03
2023-03-26T21:16:53.248Z,4.90
2023-03-26T21:19:21.337Z,5.33
2023-03-26T21:21:57.528Z,4.93
2023-03-26T21:24:35.095Z,5.57
2023-03-26T21:27:11.208Z,5.43
2023-03-26T21:29:40.962Z,5.70
2023-03-26T21:32:11.109Z,5.17
2023-03-26T21:34:47.692Z,5.83
2023-03-26T21:37:20.291Z,4.93
2023-03-26T21:39:48.335Z,5.90
2023-03-26T21:42:16.574Z,5.70
2023-03-26T21:44:46.186Z,5.30
2023-03-26T21:47:14.849Z,5.47
2023-03-26T21:49:43.117Z,4.80
2023-03-26T21:52:15.129Z,5.60
2023-03-26T21:54:43.876Z,5.33
2023-03-26T21:57:26.618Z,5.50
2023-03-26T22:00:07.833Z,5.30
2023-03-26T22:02:42.335Z,5.10
2023-03-26T22:05:15.743Z,5.30
2023-03-26T22:07:53.706Z,4.40
2023-03-26T22:10:21.511Z,5.57
2023-03-26T22:12:49.375Z,6.23
2023-03-26T22:15:19.946Z,5.60
2023-03-26T22:17:53.725Z,5.07
2023-03-26T22:20:24.332Z,5.50
2023-03-26T22:22:53.345Z,5.77
2023-03-26T22:25:22.751Z,6.13
2023-03-26T22:27:51.836Z,5.87
2023-03-26T22:30:21.830Z,6.23
2023-03-26T22:32:50.513Z,7.00
2023-03-26T22:35:18.419Z,6.00
2023-03-26T22:37:47.383Z,6.07
2023-03-26T22:40:15.034Z,5.80
2023-03-26T22:42:42.932Z,6.00
2023-03-26T22:45:11.531Z,6.10
2023-03-26T22:47:40.909Z,5.37
2023-03-26T22:50:09.888Z,5.40
2023-03-26T22:52:40.638Z,5.70
2023-03-26T22:55:10.860Z,6.13
2023-03-26T22:57:38.552Z,6.00
2023-03-26T23:00:16.074Z,6.33
2023-03-26T23:02:46.330Z,6.40
2023-03-26T23:05:14.142Z,6.40
2023-03-26T23:07:42.556Z,7.07
2023-03-26T23:10:11.563Z,6.70
2023-03-26T23:12:39.327Z,7.30
2023-03-26T23:15:08.971Z,6.93
2023-03-26T23:17:38.635Z,6.53
2023-03-26T23:20:14.334Z,6.50
2023-03-26T23:22:42.976Z,6.27
2023-03-26T23:25:11.846Z,6.47
2023-03-26T23:27:40.144Z,6.30
2023-03-26T23:30:10.683Z,6.90
2023-03-26T23:32:38.571Z,6.90
2023-03-26T23:35:08.624Z,6.87
2023-03-26T23:37:36.548Z,7.40
2023-03-26T23:40:09.817Z,7.00
2023-03-26T23:42:37.590Z,6.40
2023-03-26T23:45:05.906Z,6.90
2023-03-26T23:47:34.871Z,7.20
2023-03-26T23:50:03.381Z,6.97
2023-03-26T23:52:32.597Z,8.93
2023-03-26T23:55:00.802Z,7.57
2023-03-26T23:57:28.990Z,8.07
2023-03-26T23:59:56.662Z,7.43
